Time;durP1;ratioP1;P1;durP2;ratioP2;P2;SDS_P1;SDS_P2;PMS_P1;PMS_P2;Temp;Humidity;BMP_temperature;BMP_pressure;BME280_temperature;BME280_humidity;BME280_pressure;Samples;Min_cycle;Max_cycle;Signal;HPM_P1;HPM_P2
2022/01/03 15:33:57;;;;;;;81.90;38.97;;;7.50;99.10;;;;;;4700073;27;11571764;-80
2022/01/03 15:36:55;;;;;;;44.67;24.00;;;7.40;99.90;;;;;;5070294;28;20079;-81
2022/01/03 15:39:20;;;;;;;20.23;11.40;;;7.50;99.90;;;;;;5067739;28;20033;-83
2022/01/03 15:41:46;;;;;;;14.90;8.35;;;7.60;99.90;;;;;;5070099;28;20066;-82
2022/01/03 15:44:12;;;;;;;10.95;6.93;;;7.70;99.90;;;;;;5088903;28;20098;-82
2022/01/03 15:47:15;;;;;;;10.45;6.00;;;7.70;99.90;;;;;;5088953;28;20593;-83
2022/01/03 15:49:52;;;;;;;9.85;5.97;;;7.80;99.90;;;;;;5070501;28;20036;-85
2022/01/03 15:52:44;;;;;;;;;;;;;;;;;;;;;
2022/01/03 15:55:10;;;;;;;9.38;5.38;;;7.90;99.90;;;;;;5089149;28;20413;-79
2022/01/03 15:57:57;;;;;;;9.75;5.35;;;7.90;99.90;;;;;;5070814;28;20052;-84
2022/01/03 16:00:27;;;;;;;9.07;5.05;;;8.00;99.90;;;;;;5070920;28;20052;-85
2022/01/03 16:02:53;;;;;;;9.10;5.43;;;8.00;99.90;;;;;;5088067;28;20020;-83
2022/01/03 16:05:22;;;;;;;8.27;5.10;;;8.00;99.90;;;;;;5088357;28;20111;-86
2022/01/03 16:07:47;;;;;;;24.80;16.10;;;8.00;99.20;;;;;;5070293;28;20028;-87
2022/01/03 16:10:13;;;;;;;19.35;11.05;;;8.00;99.00;;;;;;5070610;28;20032;-83
2022/01/03 16:12:41;;;;;;;12.13;7.28;;;8.10;98.10;;;;;;5070629;28;20032;-84
2022/01/03 16:15:10;;;;;;;9.27;5.22;;;8.10;98.20;;;;;;5088354;28;20020;-82
2022/01/03 16:17:36;;;;;;;8.80;5.28;;;8.10;97.70;;;;;;5069703;28;20062;-83
2022/01/03 16:20:04;;;;;;;8.93;5.55;;;8.10;97.60;;;;;;5069173;28;20032;-86
2022/01/03 16:22:33;;;;;;;7.65;5.15;;;8.10;97.00;;;;;;5050772;28;20029;-83
2022/01/03 16:24:58;;;;;;;9.50;4.97;;;8.10;96.90;;;;;;5051507;28;20025;-85
2022/01/03 16:27:24;;;;;;;9.68;5.25;;;8.10;96.90;;;;;;5069208;28;20404;-84
2022/01/03 16:29:50;;;;;;;8.50;4.75;;;8.00;96.50;;;;;;5067941;28;20064;-85
2022/01/03 16:32:15;;;;;;;8.10;4.93;;;8.00;97.00;;;;;;5049438;28;20059;-82
2022/01/03 16:34:41;;;;;;;8.88;5.20;;;8.00;97.00;;;;;;5067773;28;20025;-83
2022/01/03 16:37:07;;;;;;;9.20;5.15;;;8.00;96.70;;;;;;5049462;28;20104;-85
2022/01/03 16:39:33;;;;;;;6.47;4.43;;;8.00;96.60;;;;;;5049990;28;20166;-82
2022/01/03 16:41:59;;;;;;;7.30;4.90;;;7.90;96.70;;;;;;5067326;28;20028;-82
2022/01/03 16:44:25;;;;;;;6.68;4.80;;;7.90;96.50;;;;;;5059557;28;20108;-83
2022/01/03 16:46:51;;;;;;;8.30;4.85;;;7.90;96.70;;;;;;5036887;28;20036;-83
2022/01/03 16:49:20;;;;;;;9.02;4.80;;;7.90;96.80;;;;;;5036410;28;20025;-83
2022/01/03 16:51:45;;;;;;;8.35;5.10;;;7.90;96.50;;;;;;5050458;28;20093;-83
2022/01/03 16:54:11;;;;;;;8.85;5.25;;;7.90;96.30;;;;;;5034079;28;20506;-82
2022/01/03 16:56:37;;;;;;;6.38;4.70;;;7.90;96.00;;;;;;5034239;28;20056;-82
2022/01/03 16:59:03;;;;;;;8.43;5.15;;;7.90;96.20;;;;;;5033782;28;20100;-83
2022/01/03 17:01:28;;;;;;;8.05;5.03;;;7.90;96.20;;;;;;5033796;28;20116;-82
2022/01/03 17:03:54;;;;;;;7.72;4.90;;;7.90;96.20;;;;;;5016132;28;20467;-84
2022/01/03 17:06:21;;;;;;;9.05;4.90;;;7.90;96.10;;;;;;5034021;28;20067;-84
2022/01/03 17:08:47;;;;;;;8.73;5.10;;;7.90;96.20;;;;;;5015622;28;20026;-84
2022/01/03 17:11:14;;;;;;;8.20;4.95;;;7.90;95.90;;;;;;5033501;28;20029;-84
2022/01/03 17:13:44;;;;;;;8.68;5.03;;;7.90;95.80;;;;;;5016243;28;20029;-83
2022/01/03 17:16:11;;;;;;;11.57;6.32;;;8.00;95.60;;;;;;5033690;28;20036;-83
2022/01/03 17:18:40;;;;;;;11.20;5.70;;;8.00;95.60;;;;;;5019997;28;20033;-86
2022/01/03 17:21:06;;;;;;;7.88;4.88;;;8.00;95.50;;;;;;5040638;28;20033;-84
2022/01/03 17:23:37;;;;;;;9.00;4.80;;;8.00;94.90;;;;;;5040902;28;20064;-86
2022/01/03 17:26:05;;;;;;;6.90;4.43;;;7.90;94.70;;;;;;5025263;28;20021;-83
2022/01/03 17:28:30;;;;;;;8.32;4.75;;;7.90;94.70;;;;;;5029274;28;20033;-82
2022/01/03 17:30:57;;;;;;;7.50;4.43;;;7.80;94.90;;;;;;5035334;28;20486;-80
2022/01/03 17:33:23;;;;;;;23.48;13.75;;;7.70;95.10;;;;;;5035463;28;20052;-82
2022/01/03 17:35:49;;;;;;;14.63;8.93;;;7.70;95.80;;;;;;5036767;28;20029;-82
2022/01/03 17:38:18;;;;;;;13.40;7.78;;;7.60;95.80;;;;;;5040455;28;20037;-83
2022/01/03 17:40:43;;;;;;;10.82;6.40;;;7.60;96.00;;;;;;5010057;28;20132;-83
2022/01/03 17:43:12;;;;;;;8.48;5.38;;;7.60;96.20;;;;;;5033975;28;20124;-82
2022/01/03 17:45:39;;;;;;;8.43;5.35;;;7.60;96.20;;;;;;5053587;28;20106;-83
2022/01/03 17:48:08;;;;;;;8.13;4.95;;;7.60;96.30;;;;;;5035948;28;20044;-81
2022/01/03 17:50:35;;;;;;;11.52;5.07;;;7.60;96.10;;;;;;5053319;28;20379;-83
2022/01/03 17:53:10;;;;;;;7.28;4.70;;;7.50;96.10;;;;;;5053182;28;20044;-81
2022/01/03 17:55:41;;;;;;;7.80;5.10;;;7.50;96.30;;;;;;5052385;28;20045;-81
2022/01/03 17:58:07;;;;;;;;;;;7.50;96.40;;;;;;5053389;28;20024;-82
2022/01/03 18:00:33;;;;;;;7.07;4.60;;;7.50;96.30;;;;;;5052761;28;20411;-82
2022/01/03 18:02:59;;;;;;;7.38;4.75;;;7.40;96.60;;;;;;5052849;28;20111;-82
2022/01/03 18:05:25;;;;;;;6.10;4.22;;;7.50;96.60;;;;;;5053200;28;20098;-83
2022/01/03 18:07:54;;;;;;;7.75;4.28;;;7.50;96.70;;;;;;5034764;28;20025;-82
2022/01/03 18:10:21;;;;;;;7.32;4.72;;;7.50;96.70;;;;;;5035145;28;20032;-81
2022/01/03 18:12:55;;;;;;;6.55;4.30;;;7.50;96.70;;;;;;5052741;28;20033;-81
2022/01/03 18:15:22;;;;;;;5.95;3.78;;;7.50;96.70;;;;;;5052325;28;20667;-81
2022/01/03 18:17:47;;;;;;;6.10;4.00;;;7.50;96.60;;;;;;5017989;28;20033;-83
2022/01/03 18:20:13;;;;;;;6.60;4.38;;;7.60;96.50;;;;;;5052678;28;20029;-82
2022/01/03 18:22:40;;;;;;;8.52;5.10;;;7.50;96.40;;;;;;5052751;28;20059;-80
2022/01/03 18:25:07;;;;;;;7.90;4.97;;;7.60;96.40;;;;;;5034499;28;20037;-81
2022/01/03 18:27:33;;;;;;;7.38;4.85;;;7.60;96.30;;;;;;5033629;28;20025;-82
2022/01/03 18:30:00;;;;;;;6.90;4.53;;;7.60;96.00;;;;;;5052029;28;20528;-82
2022/01/03 18:32:27;;;;;;;7.03;4.35;;;7.60;95.90;;;;;;5052048;28;20128;-83
2022/01/03 18:34:53;;;;;;;7.25;4.30;;;7.60;96.00;;;;;;5035879;28;20482;-83
2022/01/03 18:37:19;;;;;;;7.80;4.25;;;7.60;95.90;;;;;;5054407;28;20554;-81
2022/01/03 18:39:45;;;;;;;7.20;4.60;;;7.60;95.80;;;;;;5034963;28;20117;-85
2022/01/03 18:42:12;;;;;;;7.22;4.30;;;7.60;95.70;;;;;;5035355;28;20033;-83
2022/01/03 18:44:38;;;;;;;5.82;3.90;;;7.50;95.70;;;;;;5035832;28;20029;-84
2022/01/03 18:47:04;;;;;;;5.70;3.75;;;7.40;95.90;;;;;;5053872;28;20029;-84
2022/01/03 18:49:30;;;;;;;6.40;4.07;;;7.40;96.20;;;;;;5034151;28;20533;-84
2022/01/03 18:51:56;;;;;;;6.25;4.03;;;7.30;96.60;;;;;;5034123;28;20037;-83
2022/01/03 18:54:22;;;;;;;6.72;4.55;;;7.30;96.90;;;;;;5034030;28;20040;-84
2022/01/03 18:56:48;;;;;;;7.03;4.35;;;7.30;97.30;;;;;;5034077;28;20029;-84
2022/01/03 18:59:13;;;;;;;9.23;5.10;;;7.30;97.40;;;;;;5051941;28;20024;-84
2022/01/03 19:01:39;;;;;;;8.93;4.68;;;7.30;97.50;;;;;;5033750;28;20025;-85
2022/01/03 19:04:05;;;;;;;6.68;4.00;;;7.30;97.50;;;;;;5033963;28;20123;-83
2022/01/03 19:06:31;;;;;;;6.10;3.90;;;7.30;97.60;;;;;;5033354;28;20055;-83
2022/01/03 19:09:05;;;;;;;6.85;4.13;;;7.40;97.50;;;;;;5051847;28;20396;-84
2022/01/03 19:11:34;;;;;;;6.65;4.20;;;7.40;97.50;;;;;;5051440;28;20056;-85
2022/01/03 19:14:00;;;;;;;5.57;3.75;;;7.40;97.30;;;;;;5033507;28;20032;-83
2022/01/03 19:16:26;;;;;;;6.85;3.95;;;7.50;97.30;;;;;;5033555;28;20554;-82
2022/01/03 19:18:51;;;;;;;7.45;4.03;;;7.40;97.10;;;;;;5050710;28;20368;-88
2022/01/03 19:21:17;;;;;;;8.70;4.47;;;7.50;97.10;;;;;;5051412;28;20025;-85
2022/01/03 19:23:46;;;;;;;34.78;19.00;;;7.50;96.80;;;;;;5051514;28;20032;-83
2022/01/03 19:26:11;;;;;;;19.52;10.88;;;7.50;96.90;;;;;;5033774;28;20035;-82
2022/01/03 19:28:40;;;;;;;19.10;10.52;;;7.40;96.70;;;;;;5051245;28;20029;-82
2022/01/03 19:31:06;;;;;;;13.43;7.82;;;7.50;96.60;;;;;;5051531;28;20040;-84
2022/01/03 19:38:55;;;;;;;8.70;4.95;;;7.40;96.20;;;;;;5053000;28;20440;-85
2022/01/03 19:41:27;;;;;;;8.02;4.78;;;7.30;96.30;;;;;;5027999;28;20037;-84
2022/01/03 19:43:55;;;;;;;7.97;4.55;;;7.20;96.50;;;;;;5025465;28;20034;-83
2022/01/03 19:46:45;;;;;;;;;;;;;;;;;;;;;
2022/01/03 19:49:31;;;;;;;9.85;5.53;;;7.10;97.60;;;;;;5038687;28;20021;-85
2022/01/03 19:52:11;;;;;;;9.00;4.80;;;7.10;97.80;;;;;;5031879;28;20139;-85
2022/01/03 19:54:47;;;;;;;6.22;4.05;;;7.10;98.00;;;;;;5031331;28;20049;-83
2022/01/03 19:57:22;;;;;;;6.72;4.20;;;7.10;98.40;;;;;;5014230;28;20043;-80
2022/01/03 19:59:57;;;;;;;7.40;4.72;;;7.10;98.70;;;;;;5030615;28;20101;-85
2022/01/03 20:02:35;;;;;;;7.28;4.80;;;7.10;98.60;;;;;;5013197;28;20045;-80
2022/01/03 20:05:26;;;;;;;6.95;4.68;;;7.10;98.70;;;;;;5013487;28;20543;-82
2022/01/03 20:08:16;;;;;;;7.85;4.82;;;7.10;99.10;;;;;;5013709;28;20037;-81
2022/01/03 20:11:19;;;;;;;8.18;4.70;;;7.20;99.00;;;;;;5016151;28;20038;-83
2022/01/03 20:14:00;;;;;;;8.35;4.60;;;7.20;99.10;;;;;;5008546;28;20080;-84
2022/01/03 20:16:29;;;;;;;7.85;4.30;;;7.20;99.10;;;;;;5013617;28;20041;-83
2022/01/03 20:19:10;;;;;;;7.03;4.45;;;7.30;99.10;;;;;;5018086;28;20084;-83
2022/01/03 20:21:44;;;;;;;7.43;4.53;;;7.30;98.70;;;;;;5016969;28;20095;-81
2022/01/03 20:24:24;;;;;;;7.18;4.20;;;7.30;98.70;;;;;;5016824;28;20029;-83
2022/01/03 20:26:51;;;;;;;7.13;4.25;;;7.30;98.70;;;;;;5017205;28;20033;-83
2022/01/03 20:29:43;;;;;;;6.35;3.90;;;7.30;98.80;;;;;;5017628;28;20030;-85
2022/01/03 20:32:10;;;;;;;7.10;4.18;;;7.40;98.70;;;;;;5017689;28;20049;-85
2022/01/03 20:34:42;;;;;;;8.48;5.10;;;7.40;98.70;;;;;;5020342;28;20040;-81
2022/01/03 20:37:08;;;;;;;9.30;5.47;;;7.40;98.40;;;;;;5016273;28;20477;-80
2022/01/03 20:39:34;;;;;;;9.27;5.07;;;7.40;98.40;;;;;;5034391;28;20044;-80
2022/01/03 20:42:00;;;;;;;7.85;4.80;;;7.40;98.30;;;;;;5035041;28;20077;-81
2022/01/03 20:44:27;;;;;;;7.20;4.63;;;7.40;98.60;;;;;;5016779;28;20300;-81
2022/01/03 20:46:53;;;;;;;8.35;4.93;;;7.40;98.70;;;;;;5034247;28;20033;-83
2022/01/03 20:49:19;;;;;;;7.47;4.32;;;7.40;98.90;;;;;;5034319;28;20029;-81
2022/01/03 20:51:45;;;;;;;7.03;4.40;;;7.40;99.10;;;;;;5033656;28;20080;-81
2022/01/03 20:54:11;;;;;;;7.85;4.75;;;7.40;99.30;;;;;;5016120;28;20052;-84
2022/01/03 20:56:37;;;;;;;8.18;4.97;;;7.40;99.20;;;;;;5016983;28;20463;-81
2022/01/03 20:59:04;;;;;;;7.97;4.55;;;7.40;99.10;;;;;;5035110;28;20064;-81
2022/01/03 21:01:35;;;;;;;6.70;4.45;;;7.40;99.20;;;;;;5041345;28;20030;-82
2022/01/03 21:04:00;;;;;;;7.80;4.07;;;7.50;99.20;;;;;;5042865;28;20021;-81
2022/01/03 21:06:26;;;;;;;5.72;3.95;;;7.50;99.20;;;;;;5046106;28;20036;-81
2022/01/03 21:08:53;;;;;;;6.57;4.00;;;7.50;99.30;;;;;;5036548;28;20587;-80
2022/01/03 21:11:18;;;;;;;6.35;4.05;;;7.50;99.40;;;;;;5036283;28;20025;-81
2022/01/03 21:13:46;;;;;;;6.18;4.15;;;7.50;99.40;;;;;;5036069;28;20040;-81
2022/01/03 21:16:12;;;;;;;7.78;4.10;;;7.50;99.40;;;;;;5036304;28;20022;-80
2022/01/03 21:18:38;;;;;;;151.45;118.50;;;7.50;99.30;;;;;;5018248;28;20025;-81
2022/01/03 21:21:04;;;;;;;59.38;48.15;;;7.60;99.40;;;;;;5018470;28;20022;-81
2022/01/03 21:23:33;;;;;;;64.82;47.22;;;7.60;99.60;;;;;;5018095;28;20029;-81
2022/01/03 21:26:01;;;;;;;33.50;23.13;;;7.60;99.70;;;;;;5018348;28;20028;-82
2022/01/03 21:28:27;;;;;;;24.33;15.75;;;7.60;99.40;;;;;;5017777;28;20057;-81
2022/01/03 21:30:53;;;;;;;15.80;10.75;;;7.70;99.20;;;;;;5054450;28;20380;-82
2022/01/03 21:33:19;;;;;;;11.80;7.80;;;7.70;99.20;;;;;;5056407;28;20049;-81
2022/01/03 21:35:46;;;;;;;9.13;6.00;;;7.70;99.20;;;;;;5037740;28;20029;-82
2022/01/03 21:38:12;;;;;;;6.68;4.68;;;7.60;99.30;;;;;;5055724;28;20028;-81
2022/01/03 21:40:38;;;;;;;5.88;4.30;;;7.60;99.40;;;;;;5037745;28;20044;-80
2022/01/03 21:43:04;;;;;;;6.88;4.03;;;7.60;99.50;;;;;;5056035;28;20166;-81
2022/01/03 21:45:30;;;;;;;6.30;4.32;;;7.60;99.50;;;;;;5037989;28;20025;-81
2022/01/03 21:47:58;;;;;;;6.70;4.05;;;7.60;99.50;;;;;;5037678;28;20036;-81
2022/01/03 21:50:25;;;;;;;5.05;3.40;;;7.60;99.60;;;;;;5037654;28;20021;-81
2022/01/03 21:52:52;;;;;;;5.53;3.28;;;7.50;99.60;;;;;;5037679;28;20090;-82
2022/01/03 21:55:18;;;;;;;5.82;3.33;;;7.50;99.90;;;;;;5055288;28;20021;-81
2022/01/03 21:57:44;;;;;;;4.82;3.25;;;7.40;99.90;;;;;;5055356;28;20119;-81
2022/01/03 22:00:11;;;;;;;5.10;3.00;;;7.40;99.90;;;;;;5037553;28;20121;-81
2022/01/03 22:02:37;;;;;;;4.20;3.05;;;7.40;99.90;;;;;;5037069;28;20032;-82
2022/01/03 22:05:06;;;;;;;5.85;3.72;;;7.40;99.90;;;;;;5037298;28;20521;-82
2022/01/03 22:07:32;;;;;;;8.95;4.53;;;7.40;99.90;;;;;;5037245;28;20021;-82
2022/01/03 22:09:58;;;;;;;9.75;5.80;;;7.40;99.90;;;;;;5054996;28;20029;-81
2022/01/03 22:12:26;;;;;;;9.40;5.82;;;7.40;99.90;;;;;;5055009;28;20037;-81
2022/01/03 22:14:52;;;;;;;7.40;4.82;;;7.40;99.90;;;;;;5036705;28;20021;-81
2022/01/03 22:17:19;;;;;;;7.13;4.38;;;7.40;99.90;;;;;;5036680;28;20051;-83
2022/01/03 22:19:45;;;;;;;5.60;3.50;;;7.30;99.90;;;;;;5037042;28;20266;-82
2022/01/03 22:22:11;;;;;;;5.70;3.70;;;7.30;99.90;;;;;;5054888;28;20067;-83
2022/01/03 22:24:36;;;;;;;6.15;4.22;;;7.30;99.90;;;;;;5055004;28;20434;-82
2022/01/03 22:27:02;;;;;;;7.43;4.25;;;7.30;99.90;;;;;;5037578;28;20459;-81
2022/01/03 22:29:29;;;;;;;6.53;4.05;;;7.30;99.90;;;;;;5037702;28;20029;-83
2022/01/03 22:31:56;;;;;;;7.20;4.07;;;7.20;99.90;;;;;;5034762;28;20075;-84
2022/01/03 22:34:22;;;;;;;5.10;3.50;;;7.20;99.90;;;;;;5052711;28;20037;-84
2022/01/03 22:36:48;;;;;;;4.57;3.40;;;7.20;99.90;;;;;;5052559;28;20498;-81
2022/01/03 22:39:14;;;;;;;6.45;3.50;;;7.20;99.90;;;;;;5034685;28;20422;-83
2022/01/03 22:41:41;;;;;;;7.88;4.40;;;7.20;99.90;;;;;;5051836;28;20083;-84
2022/01/03 22:44:09;;;;;;;7.07;4.10;;;7.20;99.90;;;;;;5052488;28;20055;-83
2022/01/03 22:46:35;;;;;;;6.43;3.97;;;7.20;99.90;;;;;;5033725;28;20021;-83
2022/01/03 22:49:02;;;;;;;6.47;4.22;;;7.10;99.90;;;;;;5052482;28;20040;-83
2022/01/03 22:51:29;;;;;;;6.50;3.72;;;7.20;99.90;;;;;;5034699;28;20407;-82
2022/01/03 22:53:54;;;;;;;6.30;4.22;;;7.20;99.90;;;;;;5034187;28;20471;-83
2022/01/03 22:56:20;;;;;;;6.85;4.50;;;7.10;99.90;;;;;;5034304;28;20043;-82
2022/01/03 22:58:46;;;;;;;6.28;4.07;;;7.10;99.90;;;;;;5052510;28;20063;-83
2022/01/03 23:01:12;;;;;;;6.03;3.90;;;7.20;99.90;;;;;;5034593;28;20029;-82
2022/01/03 23:03:38;;;;;;;5.40;3.45;;;7.10;99.90;;;;;;5052394;28;20036;-81
2022/01/03 23:06:04;;;;;;;4.80;3.47;;;7.20;99.90;;;;;;5034890;28;20029;-81
2022/01/03 23:08:32;;;;;;;5.00;3.35;;;7.10;99.90;;;;;;5052606;28;20021;-81
2022/01/03 23:10:59;;;;;;;6.25;3.50;;;7.10;99.90;;;;;;5034359;28;20108;-82
2022/01/03 23:13:25;;;;;;;4.20;2.95;;;7.10;99.90;;;;;;5052179;28;20037;-82
2022/01/03 23:15:50;;;;;;;5.13;3.28;;;7.10;99.90;;;;;;5052015;28;20040;-83
2022/01/03 23:18:16;;;;;;;12.95;8.60;;;7.10;99.90;;;;;;5033919;28;20029;-86
2022/01/03 23:20:42;;;;;;;9.57;6.03;;;7.10;99.90;;;;;;5034744;28;20033;-83
2022/01/03 23:23:08;;;;;;;6.35;4.55;;;7.10;99.90;;;;;;5052752;28;20036;-84
2022/01/03 23:25:33;;;;;;;6.03;3.78;;;7.10;99.90;;;;;;5051823;28;20065;-83
2022/01/03 23:27:59;;;;;;;5.32;3.65;;;7.10;99.90;;;;;;5051508;28;20131;-83
2022/01/03 23:30:25;;;;;;;4.45;3.20;;;7.10;99.90;;;;;;5051021;28;20029;-83
2022/01/03 23:32:51;;;;;;;5.50;3.38;;;7.10;99.90;;;;;;5050727;28;20164;-83
2022/01/03 23:35:17;;;;;;;5.72;3.53;;;7.10;99.90;;;;;;5033771;28;20037;-82
2022/01/03 23:37:44;;;;;;;3.97;3.10;;;7.00;99.90;;;;;;5050698;28;20041;-82
2022/01/03 23:40:12;;;;;;;5.03;3.45;;;7.10;99.90;;;;;;5051519;28;20033;-83
2022/01/03 23:42:38;;;;;;;5.53;3.30;;;7.10;99.90;;;;;;5051133;28;20491;-83
2022/01/03 23:45:05;;;;;;;6.05;3.30;;;7.10;99.90;;;;;;5033694;28;20121;-84
2022/01/03 23:47:31;;;;;;;5.38;3.30;;;7.10;99.90;;;;;;5033673;28;20028;-85
2022/01/03 23:49:56;;;;;;;5.00;3.20;;;7.00;99.90;;;;;;5016823;28;20029;-82
2022/01/03 23:52:22;;;;;;;4.88;3.10;;;7.00;99.90;;;;;;5033709;28;20121;-84
2022/01/03 23:54:48;;;;;;;4.95;3.13;;;7.00;99.90;;;;;;5037227;28;20029;-86
2022/01/03 23:57:14;;;;;;;4.57;3.10;;;7.00;99.90;;;;;;5056338;28;20021;-82
2022/01/03 23:59:39;;;;;;;4.82;3.17;;;6.90;99.90;;;;;;5055857;28;20028;-84
